Terminal Aerodrome Forecast
Issued by NWS Tampa Bay Area, FL

Home | Current Version | Previous Version | Text Only | Print | Product List | Glossary On
Versions: 1 2 3 4 5 6 7 8 9 10 11 12 13 14 15 16 17 18 19 20 21 22 23 24 25 26 27 28
000
FTUS42 KTBW 241000 AAB
TAFTPA
TAF AMD
KTPA 241008Z 2410/2506 VRB03KT 5SM BR SKC
     FM241300 23008KT P6SM SCT035 SCT250
     FM241900 27011KT P6SM SCT035 SCT250
     FM250200 VRB05KT P6SM FEW250=

USA.gov is the U.S. government's official web portal to all federal, state and local government web resources and services.